sensor_id;sensor_type;location;lat;lon;timestamp;temperature;humidity
49184;DHT22;35021;49.214;12.270;2023-04-15T00:01:47;20.60;39.30
49184;DHT22;35021;49.214;12.270;2023-04-15T00:04:15;20.60;39.30
49184;DHT22;35021;49.214;12.270;2023-04-15T00:06:42;20.60;39.30
49184;DHT22;35021;49.214;12.270;2023-04-15T00:09:08;20.50;39.30
49184;DHT22;35021;49.214;12.270;2023-04-15T00:11:35;20.50;39.40
49184;DHT22;35021;49.214;12.270;2023-04-15T00:14:03;20.50;39.40
49184;DHT22;35021;49.214;12.270;2023-04-15T00:16:30;20.40;39.50
49184;DHT22;35021;49.214;12.270;2023-04-15T00:18:57;20.30;39.60
49184;DHT22;35021;49.214;12.270;2023-04-15T00:21:24;20.20;39.70
49184;DHT22;35021;49.214;12.270;2023-04-15T00:23:53;20.20;39.90
49184;DHT22;35021;49.214;12.270;2023-04-15T00:26:20;20.10;40.00
49184;DHT22;35021;49.214;12.270;2023-04-15T00:28:47;20.00;40.00
49184;DHT22;35021;49.214;12.270;2023-04-15T00:31:14;20.00;40.10
49184;DHT22;35021;49.214;12.270;2023-04-15T00:33:41;19.90;40.20
49184;DHT22;35021;49.214;12.270;2023-04-15T00:36:08;19.90;40.20
49184;DHT22;35021;49.214;12.270;2023-04-15T00:38:37;19.90;40.20
49184;DHT22;35021;49.214;12.270;2023-04-15T00:41:04;19.90;40.20
49184;DHT22;35021;49.214;12.270;2023-04-15T00:43:30;19.90;40.20
49184;DHT22;35021;49.214;12.270;2023-04-15T00:45:58;19.90;40.10
49184;DHT22;35021;49.214;12.270;2023-04-15T00:48:27;19.90;40.20
49184;DHT22;35021;49.214;12.270;2023-04-15T00:50:54;19.90;40.10
49184;DHT22;35021;49.214;12.270;2023-04-15T00:53:21;19.90;40.10
49184;DHT22;35021;49.214;12.270;2023-04-15T00:55:48;19.90;40.10
49184;DHT22;35021;49.214;12.270;2023-04-15T00:58:15;19.90;40.00
49184;DHT22;35021;49.214;12.270;2023-04-15T01:00:43;19.90;40.00
49184;DHT22;35021;49.214;12.270;2023-04-15T01:03:10;19.90;40.00
49184;DHT22;35021;49.214;12.270;2023-04-15T01:05:37;20.00;40.00
49184;DHT22;35021;49.214;12.270;2023-04-15T01:08:05;20.00;39.90
49184;DHT22;35021;49.214;12.270;2023-04-15T01:10:32;20.00;39.90
49184;DHT22;35021;49.214;12.270;2023-04-15T01:12:59;20.00;39.90
49184;DHT22;35021;49.214;12.270;2023-04-15T01:15:26;20.00;39.90
49184;DHT22;35021;49.214;12.270;2023-04-15T01:17:56;19.90;39.90
49184;DHT22;35021;49.214;12.270;2023-04-15T01:20:24;19.90;40.00
49184;DHT22;35021;49.214;12.270;2023-04-15T01:22:53;19.90;40.00
49184;DHT22;35021;49.214;12.270;2023-04-15T01:25:33;19.90;40.10
49184;DHT22;35021;49.214;12.270;2023-04-15T01:28:00;19.80;40.10
49184;DHT22;35021;49.214;12.270;2023-04-15T01:30:27;19.90;40.20
49184;DHT22;35021;49.214;12.270;2023-04-15T01:32:54;19.80;40.20
49184;DHT22;35021;49.214;12.270;2023-04-15T01:35:22;19.80;40.20
49184;DHT22;35021;49.214;12.270;2023-04-15T01:37:49;19.90;40.30
49184;DHT22;35021;49.214;12.270;2023-04-15T01:40:16;19.90;40.30
49184;DHT22;35021;49.214;12.270;2023-04-15T01:42:43;19.90;40.30
49184;DHT22;35021;49.214;12.270;2023-04-15T01:45:11;19.90;40.20
49184;DHT22;35021;49.214;12.270;2023-04-15T01:47:40;19.90;40.20
49184;DHT22;35021;49.214;12.270;2023-04-15T01:50:07;19.90;40.20
49184;DHT22;35021;49.214;12.270;2023-04-15T01:52:34;19.90;40.20
49184;DHT22;35021;49.214;12.270;2023-04-15T01:55:01;19.90;40.20
49184;DHT22;35021;49.214;12.270;2023-04-15T01:57:28;19.90;40.10
49184;DHT22;35021;49.214;12.270;2023-04-15T01:59:55;19.90;40.10
49184;DHT22;35021;49.214;12.270;2023-04-15T02:02:23;19.90;40.10
49184;DHT22;35021;49.214;12.270;2023-04-15T02:04:50;19.90;40.10
49184;DHT22;35021;49.214;12.270;2023-04-15T02:07:17;19.90;40.00
49184;DHT22;35021;49.214;12.270;2023-04-15T02:09:45;19.90;40.00
49184;DHT22;35021;49.214;12.270;2023-04-15T02:12:12;20.00;40.10
49184;DHT22;35021;49.214;12.270;2023-04-15T02:14:39;20.00;40.00
49184;DHT22;35021;49.214;12.270;2023-04-15T02:17:08;20.00;40.00
49184;DHT22;35021;49.214;12.270;2023-04-15T02:19:36;20.00;40.00
49184;DHT22;35021;49.214;12.270;2023-04-15T02:22:03;20.00;40.00
49184;DHT22;35021;49.214;12.270;2023-04-15T02:24:29;20.00;40.70
49184;DHT22;35021;49.214;12.270;2023-04-15T02:26:56;20.00;40.00
49184;DHT22;35021;49.214;12.270;2023-04-15T02:29:24;20.00;40.00
49184;DHT22;35021;49.214;12.270;2023-04-15T02:31:51;20.00;40.00
49184;DHT22;35021;49.214;12.270;2023-04-15T02:34:17;20.00;40.00
49184;DHT22;35021;49.214;12.270;2023-04-15T02:36:44;20.00;39.90
49184;DHT22;35021;49.214;12.270;2023-04-15T02:39:14;20.00;40.00
49184;DHT22;35021;49.214;12.270;2023-04-15T02:41:42;20.00;39.90
49184;DHT22;35021;49.214;12.270;2023-04-15T02:44:13;20.00;39.90
49184;DHT22;35021;49.214;12.270;2023-04-15T02:46:39;20.00;39.90
49184;DHT22;35021;49.214;12.270;2023-04-15T02:49:07;20.00;39.90
49184;DHT22;35021;49.214;12.270;2023-04-15T02:51:34;20.00;40.00
49184;DHT22;35021;49.214;12.270;2023-04-15T02:54:01;20.10;40.00
49184;DHT22;35021;49.214;12.270;2023-04-15T02:56:28;20.10;39.90
49184;DHT22;35021;49.214;12.270;2023-04-15T02:58:56;20.10;39.90
49184;DHT22;35021;49.214;12.270;2023-04-15T03:01:24;20.10;40.00
49184;DHT22;35021;49.214;12.270;2023-04-15T03:03:51;20.10;39.90
49184;DHT22;35021;49.214;12.270;2023-04-15T03:06:18;20.10;40.00
49184;DHT22;35021;49.214;12.270;2023-04-15T03:08:45;20.00;40.00
49184;DHT22;35021;49.214;12.270;2023-04-15T03:11:14;20.00;40.00
49184;DHT22;35021;49.214;12.270;2023-04-15T03:13:41;20.00;40.10
49184;DHT22;35021;49.214;12.270;2023-04-15T03:16:09;20.00;40.10
49184;DHT22;35021;49.214;12.270;2023-04-15T03:18:36;19.90;40.10
49184;DHT22;35021;49.214;12.270;2023-04-15T03:21:03;19.90;40.20
49184;DHT22;35021;49.214;12.270;2023-04-15T03:23:30;19.90;40.20
49184;DHT22;35021;49.214;12.270;2023-04-15T03:26:01;19.90;40.20
49184;DHT22;35021;49.214;12.270;2023-04-15T03:28:28;19.90;40.30
49184;DHT22;35021;49.214;12.270;2023-04-15T03:30:56;19.90;40.30
49184;DHT22;35021;49.214;12.270;2023-04-15T03:33:23;19.90;40.30
49184;DHT22;35021;49.214;12.270;2023-04-15T03:35:50;19.80;40.30
49184;DHT22;35021;49.214;12.270;2023-04-15T03:38:17;19.80;40.30
49184;DHT22;35021;49.214;12.270;2023-04-15T03:40:45;19.80;40.30
49184;DHT22;35021;49.214;12.270;2023-04-15T03:43:13;19.80;40.40
49184;DHT22;35021;49.214;12.270;2023-04-15T03:45:40;19.80;40.30
49184;DHT22;35021;49.214;12.270;2023-04-15T03:48:06;19.90;40.40
49184;DHT22;35021;49.214;12.270;2023-04-15T03:50:44;20.00;40.30
49184;DHT22;35021;49.214;12.270;2023-04-15T03:53:11;20.00;40.20
49184;DHT22;35021;49.214;12.270;2023-04-15T03:55:37;20.10;40.10
49184;DHT22;35021;49.214;12.270;2023-04-15T03:58:04;20.20;40.00
49184;DHT22;35021;49.214;12.270;2023-04-15T04:00:31;20.30;40.00
49184;DHT22;35021;49.214;12.270;2023-04-15T04:02:58;20.30;39.80
49184;DHT22;35021;49.214;12.270;2023-04-15T04:05:25;20.40;39.70
49184;DHT22;35021;49.214;12.270;2023-04-15T04:07:52;20.50;39.60
49184;DHT22;35021;49.214;12.270;2023-04-15T04:10:19;20.60;39.50
49184;DHT22;35021;49.214;12.270;2023-04-15T04:12:46;20.60;39.30
49184;DHT22;35021;49.214;12.270;2023-04-15T04:15:13;20.70;39.20
49184;DHT22;35021;49.214;12.270;2023-04-15T04:17:39;20.70;39.20
49184;DHT22;35021;49.214;12.270;2023-04-15T04:20:07;20.70;39.10
49184;DHT22;35021;49.214;12.270;2023-04-15T04:22:38;20.70;39.10
49184;DHT22;35021;49.214;12.270;2023-04-15T04:25:06;20.70;39.10
49184;DHT22;35021;49.214;12.270;2023-04-15T04:27:34;20.60;39.10
49184;DHT22;35021;49.214;12.270;2023-04-15T04:30:02;20.60;39.20
49184;DHT22;35021;49.214;12.270;2023-04-15T04:32:30;20.60;39.20
49184;DHT22;35021;49.214;12.270;2023-04-15T04:34:57;20.60;39.30
49184;DHT22;35021;49.214;12.270;2023-04-15T04:37:23;20.60;39.30
49184;DHT22;35021;49.214;12.270;2023-04-15T04:39:51;20.60;39.20
49184;DHT22;35021;49.214;12.270;2023-04-15T04:42:17;20.70;39.20
49184;DHT22;35021;49.214;12.270;2023-04-15T04:44:44;20.70;39.20
49184;DHT22;35021;49.214;12.270;2023-04-15T04:47:12;20.70;39.00
49184;DHT22;35021;49.214;12.270;2023-04-15T04:49:39;20.80;38.90
49184;DHT22;35021;49.214;12.270;2023-04-15T04:52:07;20.90;38.90
49184;DHT22;35021;49.214;12.270;2023-04-15T04:54:34;20.90;38.80
49184;DHT22;35021;49.214;12.270;2023-04-15T04:57:01;21.00;38.70
49184;DHT22;35021;49.214;12.270;2023-04-15T04:59:28;21.00;38.60
49184;DHT22;35021;49.214;12.270;2023-04-15T05:01:55;21.00;38.60
49184;DHT22;35021;49.214;12.270;2023-04-15T05:04:22;21.00;38.70
49184;DHT22;35021;49.214;12.270;2023-04-15T05:06:49;20.90;38.60
49184;DHT22;35021;49.214;12.270;2023-04-15T05:09:16;20.90;38.70
49184;DHT22;35021;49.214;12.270;2023-04-15T05:11:44;20.90;38.70
49184;DHT22;35021;49.214;12.270;2023-04-15T05:14:11;20.80;38.80
49184;DHT22;35021;49.214;12.270;2023-04-15T05:16:38;20.80;38.80
49184;DHT22;35021;49.214;12.270;2023-04-15T05:19:05;20.80;38.80
49184;DHT22;35021;49.214;12.270;2023-04-15T05:21:31;20.70;38.80
49184;DHT22;35021;49.214;12.270;2023-04-15T05:23:59;20.70;38.80
49184;DHT22;35021;49.214;12.270;2023-04-15T05:26:26;20.80;38.80
49184;DHT22;35021;49.214;12.270;2023-04-15T05:28:53;20.80;38.70
49184;DHT22;35021;49.214;12.270;2023-04-15T05:31:20;20.80;38.60
49184;DHT22;35021;49.214;12.270;2023-04-15T05:33:47;20.80;38.50
49184;DHT22;35021;49.214;12.270;2023-04-15T05:36:15;20.90;38.50
49184;DHT22;35021;49.214;12.270;2023-04-15T05:38:42;20.90;38.30
49184;DHT22;35021;49.214;12.270;2023-04-15T05:41:09;20.90;38.20
49184;DHT22;35021;49.214;12.270;2023-04-15T05:43:36;20.90;38.20
49184;DHT22;35021;49.214;12.270;2023-04-15T05:46:03;20.90;38.10
49184;DHT22;35021;49.214;12.270;2023-04-15T05:48:30;20.90;38.10
49184;DHT22;35021;49.214;12.270;2023-04-15T05:50:57;20.90;38.10
49184;DHT22;35021;49.214;12.270;2023-04-15T05:53:25;20.90;38.20
49184;DHT22;35021;49.214;12.270;2023-04-15T05:55:52;20.90;38.20
49184;DHT22;35021;49.214;12.270;2023-04-15T05:58:19;20.80;38.10
49184;DHT22;35021;49.214;12.270;2023-04-15T06:00:45;20.80;38.10
49184;DHT22;35021;49.214;12.270;2023-04-15T06:03:13;20.80;38.10
49184;DHT22;35021;49.214;12.270;2023-04-15T06:05:40;20.80;38.20
49184;DHT22;35021;49.214;12.270;2023-04-15T06:08:06;20.70;38.20
49184;DHT22;35021;49.214;12.270;2023-04-15T06:10:34;20.80;38.30
49184;DHT22;35021;49.214;12.270;2023-04-15T06:13:03;20.70;38.30
49184;DHT22;35021;49.214;12.270;2023-04-15T06:15:30;20.70;38.40
49184;DHT22;35021;49.214;12.270;2023-04-15T06:17:58;20.80;38.40
49184;DHT22;35021;49.214;12.270;2023-04-15T06:20:25;20.80;38.40
49184;DHT22;35021;49.214;12.270;2023-04-15T06:22:52;20.80;38.40
49184;DHT22;35021;49.214;12.270;2023-04-15T06:25:19;20.80;38.30
49184;DHT22;35021;49.214;12.270;2023-04-15T06:27:46;20.80;38.30
49184;DHT22;35021;49.214;12.270;2023-04-15T06:30:13;20.80;38.30
49184;DHT22;35021;49.214;12.270;2023-04-15T06:32:40;20.80;38.40
49184;DHT22;35021;49.214;12.270;2023-04-15T06:35:08;20.80;38.50
49184;DHT22;35021;49.214;12.270;2023-04-15T06:37:34;20.70;38.60
49184;DHT22;35021;49.214;12.270;2023-04-15T06:40:02;20.60;38.70
49184;DHT22;35021;49.214;12.270;2023-04-15T06:42:31;20.60;38.90
49184;DHT22;35021;49.214;12.270;2023-04-15T06:44:58;20.50;39.00
49184;DHT22;35021;49.214;12.270;2023-04-15T06:47:25;20.50;39.20
49184;DHT22;35021;49.214;12.270;2023-04-15T06:49:52;20.40;39.30
49184;DHT22;35021;49.214;12.270;2023-04-15T06:52:19;20.40;39.30
49184;DHT22;35021;49.214;12.270;2023-04-15T06:54:46;20.40;39.30
49184;DHT22;35021;49.214;12.270;2023-04-15T06:57:13;20.40;39.30
49184;DHT22;35021;49.214;12.270;2023-04-15T06:59:39;20.40;39.20
49184;DHT22;35021;49.214;12.270;2023-04-15T07:02:10;20.40;39.20
49184;DHT22;35021;49.214;12.270;2023-04-15T07:04:38;20.40;39.20
49184;DHT22;35021;49.214;12.270;2023-04-15T07:07:06;20.40;39.20
49184;DHT22;35021;49.214;12.270;2023-04-15T07:09:33;20.40;39.20
49184;DHT22;35021;49.214;12.270;2023-04-15T07:12:00;20.40;39.30
49184;DHT22;35021;49.214;12.270;2023-04-15T07:14:28;20.40;39.20
49184;DHT22;35021;49.214;12.270;2023-04-15T07:16:56;20.40;39.20
49184;DHT22;35021;49.214;12.270;2023-04-15T07:19:23;20.40;39.20
49184;DHT22;35021;49.214;12.270;2023-04-15T07:21:50;20.50;39.10
49184;DHT22;35021;49.214;12.270;2023-04-15T07:24:17;20.50;39.10
49184;DHT22;35021;49.214;12.270;2023-04-15T07:26:45;20.50;39.10
49184;DHT22;35021;49.214;12.270;2023-04-15T07:29:12;20.50;39.10
49184;DHT22;35021;49.214;12.270;2023-04-15T07:31:39;20.50;39.10
49184;DHT22;35021;49.214;12.270;2023-04-15T07:34:07;20.40;38.90
49184;DHT22;35021;49.214;12.270;2023-04-15T07:36:34;20.40;38.90
49184;DHT22;35021;49.214;12.270;2023-04-15T07:39:02;20.30;38.90
49184;DHT22;35021;49.214;12.270;2023-04-15T07:41:30;20.30;38.90
49184;DHT22;35021;49.214;12.270;2023-04-15T07:43:57;20.20;38.90
49184;DHT22;35021;49.214;12.270;2023-04-15T07:46:24;20.20;39.00
49184;DHT22;35021;49.214;12.270;2023-04-15T07:48:53;20.20;39.10
49184;DHT22;35021;49.214;12.270;2023-04-15T07:51:20;20.10;39.20
49184;DHT22;35021;49.214;12.270;2023-04-15T07:53:48;20.10;39.20
49184;DHT22;35021;49.214;12.270;2023-04-15T07:56:16;20.10;39.30
49184;DHT22;35021;49.214;12.270;2023-04-15T07:58:43;20.20;39.30
49184;DHT22;35021;49.214;12.270;2023-04-15T08:01:09;20.20;39.20
49184;DHT22;35021;49.214;12.270;2023-04-15T08:03:37;20.20;39.10
49184;DHT22;35021;49.214;12.270;2023-04-15T08:06:05;20.30;39.10
49184;DHT22;35021;49.214;12.270;2023-04-15T08:08:32;20.40;39.00
49184;DHT22;35021;49.214;12.270;2023-04-15T08:10:59;20.40;39.00
49184;DHT22;35021;49.214;12.270;2023-04-15T08:13:26;20.50;38.80
49184;DHT22;35021;49.214;12.270;2023-04-15T08:18:42;20.60;38.70
49184;DHT22;35021;49.214;12.270;2023-04-15T08:21:10;20.60;38.70
49184;DHT22;35021;49.214;12.270;2023-04-15T08:23:37;20.60;38.70
49184;DHT22;35021;49.214;12.270;2023-04-15T08:26:05;20.60;38.80
49184;DHT22;35021;49.214;12.270;2023-04-15T08:28:32;20.60;38.80
49184;DHT22;35021;49.214;12.270;2023-04-15T08:30:59;20.50;38.70
49184;DHT22;35021;49.214;12.270;2023-04-15T08:33:26;20.50;38.70
49184;DHT22;35021;49.214;12.270;2023-04-15T08:35:54;20.50;38.80
49184;DHT22;35021;49.214;12.270;2023-04-15T08:38:21;20.40;38.70
49184;DHT22;35021;49.214;12.270;2023-04-15T08:40:48;20.40;38.70
49184;DHT22;35021;49.214;12.270;2023-04-15T08:43:26;20.50;38.80
49184;DHT22;35021;49.214;12.270;2023-04-15T08:45:54;20.50;38.80
49184;DHT22;35021;49.214;12.270;2023-04-15T08:48:21;20.50;38.90
49184;DHT22;35021;49.214;12.270;2023-04-15T08:50:51;20.50;38.90
49184;DHT22;35021;49.214;12.270;2023-04-15T08:53:18;20.50;39.00
49184;DHT22;35021;49.214;12.270;2023-04-15T08:55:47;20.50;39.10
49184;DHT22;35021;49.214;12.270;2023-04-15T08:58:18;20.50;39.10
49184;DHT22;35021;49.214;12.270;2023-04-15T09:00:45;20.50;39.10
49184;DHT22;35021;49.214;12.270;2023-04-15T09:03:13;20.50;39.10
49184;DHT22;35021;49.214;12.270;2023-04-15T09:05:40;20.50;39.10
49184;DHT22;35021;49.214;12.270;2023-04-15T09:08:08;20.60;39.10
49184;DHT22;35021;49.214;12.270;2023-04-15T09:10:36;20.60;39.10
49184;DHT22;35021;49.214;12.270;2023-04-15T09:13:03;20.70;39.10
49184;DHT22;35021;49.214;12.270;2023-04-15T09:15:32;20.70;39.10
49184;DHT22;35021;49.214;12.270;2023-04-15T09:17:59;20.70;38.90
49184;DHT22;35021;49.214;12.270;2023-04-15T09:20:26;20.80;38.90
49184;DHT22;35021;49.214;12.270;2023-04-15T09:22:53;20.80;38.70
49184;DHT22;35021;49.214;12.270;2023-04-15T09:27:58;20.90;38.60
49184;DHT22;35021;49.214;12.270;2023-04-15T09:30:27;21.00;38.60
49184;DHT22;35021;49.214;12.270;2023-04-15T09:33:00;21.10;38.70
49184;DHT22;35021;49.214;12.270;2023-04-15T09:35:36;21.10;38.40
49184;DHT22;35021;49.214;12.270;2023-04-15T09:38:07;21.20;38.40
49184;DHT22;35021;49.214;12.270;2023-04-15T09:40:40;21.30;38.30
49184;DHT22;35021;49.214;12.270;2023-04-15T09:43:08;21.30;38.10
49184;DHT22;35021;49.214;12.270;2023-04-15T09:45:38;21.40;38.10
49184;DHT22;35021;49.214;12.270;2023-04-15T09:48:19;21.50;38.00
49184;DHT22;35021;49.214;12.270;2023-04-15T09:50:50;21.50;38.00
49184;DHT22;35021;49.214;12.270;2023-04-15T09:53:20;21.50;37.90
49184;DHT22;35021;49.214;12.270;2023-04-15T09:55:52;21.60;37.90
49184;DHT22;35021;49.214;12.270;2023-04-15T09:58:23;21.60;37.90
49184;DHT22;35021;49.214;12.270;2023-04-15T10:00:51;21.60;37.90
49184;DHT22;35021;49.214;12.270;2023-04-15T10:03:30;21.70;37.90
49184;DHT22;35021;49.214;12.270;2023-04-15T10:05:59;21.70;37.80
49184;DHT22;35021;49.214;12.270;2023-04-15T10:08:29;21.70;37.90
49184;DHT22;35021;49.214;12.270;2023-04-15T10:10:56;21.70;37.90
49184;DHT22;35021;49.214;12.270;2023-04-15T10:13:24;21.70;37.80
49184;DHT22;35021;49.214;12.270;2023-04-15T10:16:00;21.80;37.80
49184;DHT22;35021;49.214;12.270;2023-04-15T10:18:31;21.70;37.70
49184;DHT22;35021;49.214;12.270;2023-04-15T10:21:00;21.70;37.70
49184;DHT22;35021;49.214;12.270;2023-04-15T10:23:27;21.70;37.70
49184;DHT22;35021;49.214;12.270;2023-04-15T10:25:55;21.80;37.70
49184;DHT22;35021;49.214;12.270;2023-04-15T10:28:23;21.80;37.90
49184;DHT22;35021;49.214;12.270;2023-04-15T10:30:51;21.80;37.80
49184;DHT22;35021;49.214;12.270;2023-04-15T10:33:21;21.80;37.90
49184;DHT22;35021;49.214;12.270;2023-04-15T10:35:50;21.80;37.90
49184;DHT22;35021;49.214;12.270;2023-04-15T10:38:37;21.70;37.80
49184;DHT22;35021;49.214;12.270;2023-04-15T10:43:54;21.70;37.90
49184;DHT22;35021;49.214;12.270;2023-04-15T10:46:24;21.70;37.90
49184;DHT22;35021;49.214;12.270;2023-04-15T10:49:15;21.70;37.90
49184;DHT22;35021;49.214;12.270;2023-04-15T10:51:51;21.60;37.90
49184;DHT22;35021;49.214;12.270;2023-04-15T10:54:31;21.60;37.90
49184;DHT22;35021;49.214;12.270;2023-04-15T10:59:35;21.50;38.10
49184;DHT22;35021;49.214;12.270;2023-04-15T11:02:04;21.50;38.10
49184;DHT22;35021;49.214;12.270;2023-04-15T11:07:36;21.50;38.10
49184;DHT22;35021;49.214;12.270;2023-04-15T11:12:47;21.50;38.10
49184;DHT22;35021;49.214;12.270;2023-04-15T11:15:43;21.50;38.10
49184;DHT22;35021;49.214;12.270;2023-04-15T11:18:18;21.60;38.10
49184;DHT22;35021;49.214;12.270;2023-04-15T11:20:53;21.60;38.00
49184;DHT22;35021;49.214;12.270;2023-04-15T11:23:35;21.60;38.00
49184;DHT22;35021;49.214;12.270;2023-04-15T11:26:05;21.60;38.00
49184;DHT22;35021;49.214;12.270;2023-04-15T11:28:35;21.70;37.90
49184;DHT22;35021;49.214;12.270;2023-04-15T11:31:06;21.70;37.80
49184;DHT22;35021;49.214;12.270;2023-04-15T11:33:34;21.70;37.80
49184;DHT22;35021;49.214;12.270;2023-04-15T11:36:01;21.70;37.80
49184;DHT22;35021;49.214;12.270;2023-04-15T11:38:28;21.70;37.80
49184;DHT22;35021;49.214;12.270;2023-04-15T11:40:55;21.80;37.90
49184;DHT22;35021;49.214;12.270;2023-04-15T11:43:22;21.80;37.90
49184;DHT22;35021;49.214;12.270;2023-04-15T11:45:52;21.80;38.00
49184;DHT22;35021;49.214;12.270;2023-04-15T11:48:22;21.80;38.00
49184;DHT22;35021;49.214;12.270;2023-04-15T11:50:59;21.80;38.00
49184;DHT22;35021;49.214;12.270;2023-04-15T11:53:43;21.80;38.00
49184;DHT22;35021;49.214;12.270;2023-04-15T11:56:20;21.70;38.10
49184;DHT22;35021;49.214;12.270;2023-04-15T11:58:51;21.60;38.20
49184;DHT22;35021;49.214;12.270;2023-04-15T12:01:18;21.60;38.30
49184;DHT22;35021;49.214;12.270;2023-04-15T12:03:46;21.60;38.40
49184;DHT22;35021;49.214;12.270;2023-04-15T12:06:20;21.50;38.40
49184;DHT22;35021;49.214;12.270;2023-04-15T12:09:03;21.50;38.40
49184;DHT22;35021;49.214;12.270;2023-04-15T12:14:12;21.60;38.20
49184;DHT22;35021;49.214;12.270;2023-04-15T12:16:49;21.60;38.20
49184;DHT22;35021;49.214;12.270;2023-04-15T12:19:39;21.70;38.20
49184;DHT22;35021;49.214;12.270;2023-04-15T12:22:12;21.70;38.10
49184;DHT22;35021;49.214;12.270;2023-04-15T12:24:40;21.70;38.00
49184;DHT22;35021;49.214;12.270;2023-04-15T12:27:10;21.80;38.10
49184;DHT22;35021;49.214;12.270;2023-04-15T12:29:38;21.80;38.00
49184;DHT22;35021;49.214;12.270;2023-04-15T12:32:10;21.80;38.00
49184;DHT22;35021;49.214;12.270;2023-04-15T12:37:07;21.80;37.90
49184;DHT22;35021;49.214;12.270;2023-04-15T12:39:40;21.80;37.90
49184;DHT22;35021;49.214;12.270;2023-04-15T12:42:08;21.90;37.90
49184;DHT22;35021;49.214;12.270;2023-04-15T12:44:36;21.90;37.80
49184;DHT22;35021;49.214;12.270;2023-04-15T12:47:03;22.00;37.70
49184;DHT22;35021;49.214;12.270;2023-04-15T12:49:32;22.00;37.70
49184;DHT22;35021;49.214;12.270;2023-04-15T12:52:00;22.00;37.60
49184;DHT22;35021;49.214;12.270;2023-04-15T12:54:28;22.10;37.60
49184;DHT22;35021;49.214;12.270;2023-04-15T12:56:56;22.10;37.50
49184;DHT22;35021;49.214;12.270;2023-04-15T12:59:23;22.10;37.40
49184;DHT22;35021;49.214;12.270;2023-04-15T13:01:50;22.10;37.40
49184;DHT22;35021;49.214;12.270;2023-04-15T13:04:19;22.10;37.40
49184;DHT22;35021;49.214;12.270;2023-04-15T13:06:46;22.10;37.40
49184;DHT22;35021;49.214;12.270;2023-04-15T13:09:13;22.10;37.30
49184;DHT22;35021;49.214;12.270;2023-04-15T13:11:41;22.10;37.30
49184;DHT22;35021;49.214;12.270;2023-04-15T13:14:09;22.00;37.40
49184;DHT22;35021;49.214;12.270;2023-04-15T13:16:39;22.00;37.50
49184;DHT22;35021;49.214;12.270;2023-04-15T13:19:06;22.00;37.50
49184;DHT22;35021;49.214;12.270;2023-04-15T13:21:33;22.00;37.50
49184;DHT22;35021;49.214;12.270;2023-04-15T13:24:02;22.00;37.50
49184;DHT22;35021;49.214;12.270;2023-04-15T13:26:30;22.00;37.60
49184;DHT22;35021;49.214;12.270;2023-04-15T13:28:58;22.00;37.50
49184;DHT22;35021;49.214;12.270;2023-04-15T13:31:24;22.10;37.50
49184;DHT22;35021;49.214;12.270;2023-04-15T13:33:52;22.10;37.70
49184;DHT22;35021;49.214;12.270;2023-04-15T13:36:19;22.20;37.50
49184;DHT22;35021;49.214;12.270;2023-04-15T13:38:46;22.20;37.40
49184;DHT22;35021;49.214;12.270;2023-04-15T13:41:16;22.20;37.40
49184;DHT22;35021;49.214;12.270;2023-04-15T13:43:43;22.20;37.30
49184;DHT22;35021;49.214;12.270;2023-04-15T13:46:10;22.20;37.30
49184;DHT22;35021;49.214;12.270;2023-04-15T13:48:37;22.20;37.30
49184;DHT22;35021;49.214;12.270;2023-04-15T13:51:04;22.20;37.30
49184;DHT22;35021;49.214;12.270;2023-04-15T13:53:31;22.20;37.40
49184;DHT22;35021;49.214;12.270;2023-04-15T13:56:06;22.20;37.40
49184;DHT22;35021;49.214;12.270;2023-04-15T13:58:33;22.20;37.40
49184;DHT22;35021;49.214;12.270;2023-04-15T14:01:00;22.20;37.40
49184;DHT22;35021;49.214;12.270;2023-04-15T14:03:29;22.20;37.50
49184;DHT22;35021;49.214;12.270;2023-04-15T14:05:57;22.20;37.50
49184;DHT22;35021;49.214;12.270;2023-04-15T14:08:24;22.20;37.60
49184;DHT22;35021;49.214;12.270;2023-04-15T14:10:51;22.10;37.60
49184;DHT22;35021;49.214;12.270;2023-04-15T14:13:18;22.10;37.70
49184;DHT22;35021;49.214;12.270;2023-04-15T14:15:45;22.10;37.80
49184;DHT22;35021;49.214;12.270;2023-04-15T14:18:13;22.00;37.90
49184;DHT22;35021;49.214;12.270;2023-04-15T14:20:40;22.00;37.90
49184;DHT22;35021;49.214;12.270;2023-04-15T14:23:07;22.00;37.90
49184;DHT22;35021;49.214;12.270;2023-04-15T14:25:34;22.00;37.90
49184;DHT22;35021;49.214;12.270;2023-04-15T14:28:01;22.00;37.90
49184;DHT22;35021;49.214;12.270;2023-04-15T14:30:29;22.10;37.90
49184;DHT22;35021;49.214;12.270;2023-04-15T14:32:56;22.00;37.90
49184;DHT22;35021;49.214;12.270;2023-04-15T14:35:23;22.10;38.00
49184;DHT22;35021;49.214;12.270;2023-04-15T14:37:53;22.10;38.00
49184;DHT22;35021;49.214;12.270;2023-04-15T14:40:20;22.10;38.00
49184;DHT22;35021;49.214;12.270;2023-04-15T14:42:47;22.10;38.00
49184;DHT22;35021;49.214;12.270;2023-04-15T14:45:14;22.10;38.00
49184;DHT22;35021;49.214;12.270;2023-04-15T14:47:42;22.10;38.00
49184;DHT22;35021;49.214;12.270;2023-04-15T14:50:09;22.10;38.00
49184;DHT22;35021;49.214;12.270;2023-04-15T14:52:36;22.10;38.00
49184;DHT22;35021;49.214;12.270;2023-04-15T14:55:06;22.10;38.00
49184;DHT22;35021;49.214;12.270;2023-04-15T14:57:34;22.10;38.00
49184;DHT22;35021;49.214;12.270;2023-04-15T15:00:02;22.10;37.90
49184;DHT22;35021;49.214;12.270;2023-04-15T15:02:30;22.10;37.90
49184;DHT22;35021;49.214;12.270;2023-04-15T15:05:05;22.10;37.90
49184;DHT22;35021;49.214;12.270;2023-04-15T15:07:33;22.10;37.90
49184;DHT22;35021;49.214;12.270;2023-04-15T15:09:59;22.10;38.00
49184;DHT22;35021;49.214;12.270;2023-04-15T15:12:26;22.00;38.70
49184;DHT22;35021;49.214;12.270;2023-04-15T15:14:56;22.00;38.00
49184;DHT22;35021;49.214;12.270;2023-04-15T15:17:23;22.00;38.10
49184;DHT22;35021;49.214;12.270;2023-04-15T15:19:50;21.90;38.10
49184;DHT22;35021;49.214;12.270;2023-04-15T15:22:18;21.90;38.10
49184;DHT22;35021;49.214;12.270;2023-04-15T15:24:47;21.90;38.20
49184;DHT22;35021;49.214;12.270;2023-04-15T15:27:14;21.90;38.30
49184;DHT22;35021;49.214;12.270;2023-04-15T15:29:41;21.80;38.20
49184;DHT22;35021;49.214;12.270;2023-04-15T15:32:08;21.80;38.20
49184;DHT22;35021;49.214;12.270;2023-04-15T15:34:35;21.80;38.30
49184;DHT22;35021;49.214;12.270;2023-04-15T15:37:02;21.80;38.30
49184;DHT22;35021;49.214;12.270;2023-04-15T15:39:28;21.80;38.40
49184;DHT22;35021;49.214;12.270;2023-04-15T15:41:57;21.80;38.40
49184;DHT22;35021;49.214;12.270;2023-04-15T15:44:24;21.80;38.40